sensor_id;sensor_type;location;lat;lon;timestamp;P1;durP1;ratioP1;P2;durP2;ratioP2
44973;SDS011;60981;50.720;11.342;2023-04-06T00:00:00;7.32;;;4.85;;
44973;SDS011;60981;50.720;11.342;2023-04-06T00:01:04;10.93;;;5.35;;
44973;SDS011;60981;50.720;11.342;2023-04-06T00:02:07;10.90;;;5.30;;
44973;SDS011;60981;50.720;11.342;2023-04-06T00:03:12;9.05;;;5.18;;
44973;SDS011;60981;50.720;11.342;2023-04-06T00:04:17;10.05;;;5.55;;
44973;SDS011;60981;50.720;11.342;2023-04-06T00:05:23;6.32;;;4.07;;
44973;SDS011;60981;50.720;11.342;2023-04-06T00:06:28;8.80;;;4.75;;
44973;SDS011;60981;50.720;11.342;2023-04-06T00:07:34;9.38;;;4.35;;
44973;SDS011;60981;50.720;11.342;2023-04-06T00:08:37;8.07;;;4.65;;
44973;SDS011;60981;50.720;11.342;2023-04-06T00:09:40;7.10;;;4.63;;
44973;SDS011;60981;50.720;11.342;2023-04-06T00:10:43;9.18;;;4.78;;
44973;SDS011;60981;50.720;11.342;2023-04-06T00:11:47;8.88;;;4.63;;
44973;SDS011;60981;50.720;11.342;2023-04-06T00:12:52;8.23;;;4.25;;
44973;SDS011;60981;50.720;11.342;2023-04-06T00:13:56;8.05;;;4.80;;
44973;SDS011;60981;50.720;11.342;2023-04-06T00:14:58;9.55;;;4.38;;
44973;SDS011;60981;50.720;11.342;2023-04-06T00:16:05;8.95;;;5.32;;
44973;SDS011;60981;50.720;11.342;2023-04-06T00:17:07;8.50;;;5.32;;
44973;SDS011;60981;50.720;11.342;2023-04-06T00:18:11;8.95;;;5.43;;
44973;SDS011;60981;50.720;11.342;2023-04-06T00:19:16;8.90;;;4.47;;
44973;SDS011;60981;50.720;11.342;2023-04-06T00:20:19;8.23;;;5.18;;
44973;SDS011;60981;50.720;11.342;2023-04-06T00:21:21;7.70;;;4.63;;
44973;SDS011;60981;50.720;11.342;2023-04-06T00:22:29;8.43;;;5.15;;
44973;SDS011;60981;50.720;11.342;2023-04-06T00:23:36;12.82;;;5.40;;
44973;SDS011;60981;50.720;11.342;2023-04-06T00:24:41;7.47;;;4.63;;
44973;SDS011;60981;50.720;11.342;2023-04-06T00:25:43;11.77;;;6.30;;
44973;SDS011;60981;50.720;11.342;2023-04-06T00:26:48;8.18;;;5.00;;
44973;SDS011;60981;50.720;11.342;2023-04-06T00:27:54;10.30;;;4.88;;
44973;SDS011;60981;50.720;11.342;2023-04-06T00:28:57;7.35;;;4.90;;
44973;SDS011;60981;50.720;11.342;2023-04-06T00:30:01;9.05;;;5.45;;
44973;SDS011;60981;50.720;11.342;2023-04-06T00:31:05;7.45;;;4.43;;
44973;SDS011;60981;50.720;11.342;2023-04-06T00:32:10;9.98;;;5.63;;
44973;SDS011;60981;50.720;11.342;2023-04-06T00:33:16;8.70;;;4.80;;
44973;SDS011;60981;50.720;11.342;2023-04-06T00:34:23;9.18;;;5.32;;
44973;SDS011;60981;50.720;11.342;2023-04-06T00:35:26;9.90;;;5.35;;
44973;SDS011;60981;50.720;11.342;2023-04-06T00:36:28;6.85;;;4.50;;
44973;SDS011;60981;50.720;11.342;2023-04-06T00:37:33;7.82;;;4.45;;
44973;SDS011;60981;50.720;11.342;2023-04-06T00:38:45;7.25;;;4.53;;
44973;SDS011;60981;50.720;11.342;2023-04-06T00:39:51;9.45;;;4.78;;
44973;SDS011;60981;50.720;11.342;2023-04-06T00:40:53;7.95;;;4.80;;
44973;SDS011;60981;50.720;11.342;2023-04-06T00:41:55;9.57;;;5.03;;
44973;SDS011;60981;50.720;11.342;2023-04-06T00:43:01;9.05;;;4.82;;
44973;SDS011;60981;50.720;11.342;2023-04-06T00:44:06;10.65;;;4.90;;
44973;SDS011;60981;50.720;11.342;2023-04-06T00:45:11;8.43;;;5.00;;
44973;SDS011;60981;50.720;11.342;2023-04-06T00:46:12;10.25;;;5.10;;
44973;SDS011;60981;50.720;11.342;2023-04-06T00:47:15;7.80;;;5.13;;
44973;SDS011;60981;50.720;11.342;2023-04-06T00:48:20;11.70;;;5.28;;
44973;SDS011;60981;50.720;11.342;2023-04-06T00:49:22;7.65;;;4.85;;
44973;SDS011;60981;50.720;11.342;2023-04-06T00:50:24;9.02;;;4.60;;
44973;SDS011;60981;50.720;11.342;2023-04-06T00:51:27;8.68;;;5.40;;
44973;SDS011;60981;50.720;11.342;2023-04-06T00:52:30;9.32;;;5.00;;
44973;SDS011;60981;50.720;11.342;2023-04-06T00:53:33;7.00;;;4.32;;
44973;SDS011;60981;50.720;11.342;2023-04-06T00:54:39;8.63;;;5.50;;
44973;SDS011;60981;50.720;11.342;2023-04-06T00:55:42;10.10;;;5.20;;
44973;SDS011;60981;50.720;11.342;2023-04-06T00:56:47;10.13;;;4.93;;
44973;SDS011;60981;50.720;11.342;2023-04-06T00:57:49;6.93;;;4.70;;
44973;SDS011;60981;50.720;11.342;2023-04-06T00:58:53;8.32;;;5.05;;
44973;SDS011;60981;50.720;11.342;2023-04-06T00:59:59;8.63;;;5.78;;
44973;SDS011;60981;50.720;11.342;2023-04-06T01:01:01;10.13;;;4.80;;
44973;SDS011;60981;50.720;11.342;2023-04-06T01:02:04;7.80;;;4.97;;
44973;SDS011;60981;50.720;11.342;2023-04-06T01:03:07;8.07;;;4.70;;
44973;SDS011;60981;50.720;11.342;2023-04-06T01:04:12;8.38;;;4.78;;
44973;SDS011;60981;50.720;11.342;2023-04-06T01:05:15;8.77;;;4.97;;
44973;SDS011;60981;50.720;11.342;2023-04-06T01:06:20;8.23;;;5.05;;
44973;SDS011;60981;50.720;11.342;2023-04-06T01:07:22;8.00;;;5.28;;
44973;SDS011;60981;50.720;11.342;2023-04-06T01:08:27;8.73;;;4.80;;
44973;SDS011;60981;50.720;11.342;2023-04-06T01:09:32;8.95;;;5.03;;
44973;SDS011;60981;50.720;11.342;2023-04-06T01:10:37;8.75;;;4.97;;
44973;SDS011;60981;50.720;11.342;2023-04-06T01:11:43;7.68;;;4.93;;
44973;SDS011;60981;50.720;11.342;2023-04-06T01:12:46;10.35;;;5.70;;
44973;SDS011;60981;50.720;11.342;2023-04-06T01:14:55;9.60;;;5.22;;
44973;SDS011;60981;50.720;11.342;2023-04-06T01:15:58;9.55;;;5.47;;
44973;SDS011;60981;50.720;11.342;2023-04-06T01:17:03;11.23;;;5.80;;
44973;SDS011;60981;50.720;11.342;2023-04-06T01:18:05;8.38;;;5.28;;
44973;SDS011;60981;50.720;11.342;2023-04-06T01:19:08;7.50;;;4.97;;
44973;SDS011;60981;50.720;11.342;2023-04-06T01:20:13;10.45;;;5.95;;
44973;SDS011;60981;50.720;11.342;2023-04-06T01:21:19;9.77;;;5.25;;
44973;SDS011;60981;50.720;11.342;2023-04-06T01:22:25;7.90;;;5.07;;
44973;SDS011;60981;50.720;11.342;2023-04-06T01:23:28;8.25;;;5.20;;
44973;SDS011;60981;50.720;11.342;2023-04-06T01:24:34;9.05;;;5.35;;
44973;SDS011;60981;50.720;11.342;2023-04-06T01:25:36;9.15;;;5.18;;
44973;SDS011;60981;50.720;11.342;2023-04-06T01:26:40;7.85;;;4.75;;
44973;SDS011;60981;50.720;11.342;2023-04-06T01:27:43;9.93;;;5.18;;
44973;SDS011;60981;50.720;11.342;2023-04-06T01:28:49;10.35;;;5.07;;
44973;SDS011;60981;50.720;11.342;2023-04-06T01:29:52;10.10;;;5.05;;
44973;SDS011;60981;50.720;11.342;2023-04-06T01:30:54;13.40;;;5.43;;
44973;SDS011;60981;50.720;11.342;2023-04-06T01:31:57;13.35;;;5.95;;
44973;SDS011;60981;50.720;11.342;2023-04-06T01:33:03;8.40;;;4.82;;
44973;SDS011;60981;50.720;11.342;2023-04-06T01:34:06;9.10;;;5.32;;
44973;SDS011;60981;50.720;11.342;2023-04-06T01:35:08;9.52;;;5.25;;
44973;SDS011;60981;50.720;11.342;2023-04-06T01:36:13;7.22;;;5.00;;
44973;SDS011;60981;50.720;11.342;2023-04-06T01:37:16;11.13;;;6.30;;
44973;SDS011;60981;50.720;11.342;2023-04-06T01:38:21;8.50;;;5.25;;
44973;SDS011;60981;50.720;11.342;2023-04-06T01:39:26;11.13;;;5.10;;
44973;SDS011;60981;50.720;11.342;2023-04-06T01:40:29;8.25;;;5.35;;
44973;SDS011;60981;50.720;11.342;2023-04-06T01:41:34;8.95;;;5.40;;
44973;SDS011;60981;50.720;11.342;2023-04-06T01:42:36;9.57;;;5.40;;
44973;SDS011;60981;50.720;11.342;2023-04-06T01:43:39;9.35;;;5.32;;
44973;SDS011;60981;50.720;11.342;2023-04-06T01:44:42;11.73;;;4.97;;
44973;SDS011;60981;50.720;11.342;2023-04-06T01:45:45;8.90;;;5.47;;
44973;SDS011;60981;50.720;11.342;2023-04-06T01:46:50;8.68;;;5.07;;
44973;SDS011;60981;50.720;11.342;2023-04-06T01:47:54;8.18;;;5.38;;
44973;SDS011;60981;50.720;11.342;2023-04-06T01:48:57;9.88;;;5.35;;
44973;SDS011;60981;50.720;11.342;2023-04-06T01:50:00;12.25;;;5.60;;
44973;SDS011;60981;50.720;11.342;2023-04-06T01:51:03;11.60;;;5.30;;
44973;SDS011;60981;50.720;11.342;2023-04-06T01:52:06;9.52;;;5.60;;
44973;SDS011;60981;50.720;11.342;2023-04-06T01:53:13;9.52;;;5.60;;
44973;SDS011;60981;50.720;11.342;2023-04-06T01:54:17;9.55;;;5.22;;
44973;SDS011;60981;50.720;11.342;2023-04-06T01:55:22;7.30;;;5.10;;
44973;SDS011;60981;50.720;11.342;2023-04-06T01:56:25;10.07;;;5.32;;
44973;SDS011;60981;50.720;11.342;2023-04-06T01:57:28;8.00;;;5.18;;
44973;SDS011;60981;50.720;11.342;2023-04-06T01:58:30;11.23;;;4.97;;
44973;SDS011;60981;50.720;11.342;2023-04-06T01:59:33;9.13;;;5.40;;
44973;SDS011;60981;50.720;11.342;2023-04-06T02:00:35;7.80;;;5.25;;
44973;SDS011;60981;50.720;11.342;2023-04-06T02:01:38;7.15;;;4.85;;
44973;SDS011;60981;50.720;11.342;2023-04-06T02:02:43;9.20;;;5.40;;
44973;SDS011;60981;50.720;11.342;2023-04-06T02:03:46;11.43;;;5.43;;
44973;SDS011;60981;50.720;11.342;2023-04-06T02:04:49;8.02;;;5.03;;
44973;SDS011;60981;50.720;11.342;2023-04-06T02:05:54;8.10;;;5.30;;
44973;SDS011;60981;50.720;11.342;2023-04-06T02:06:57;8.70;;;5.07;;
44973;SDS011;60981;50.720;11.342;2023-04-06T02:08:00;10.10;;;5.10;;
44973;SDS011;60981;50.720;11.342;2023-04-06T02:09:03;9.80;;;5.45;;
44973;SDS011;60981;50.720;11.342;2023-04-06T02:10:10;8.52;;;5.50;;
44973;SDS011;60981;50.720;11.342;2023-04-06T02:11:13;10.07;;;6.38;;
44973;SDS011;60981;50.720;11.342;2023-04-06T02:12:18;10.55;;;5.82;;
44973;SDS011;60981;50.720;11.342;2023-04-06T02:13:25;11.57;;;6.63;;
44973;SDS011;60981;50.720;11.342;2023-04-06T02:14:27;11.73;;;7.07;;
44973;SDS011;60981;50.720;11.342;2023-04-06T02:15:31;9.85;;;5.30;;
44973;SDS011;60981;50.720;11.342;2023-04-06T02:16:34;9.02;;;5.45;;
44973;SDS011;60981;50.720;11.342;2023-04-06T02:17:37;10.52;;;5.25;;
44973;SDS011;60981;50.720;11.342;2023-04-06T02:18:42;10.90;;;6.00;;
44973;SDS011;60981;50.720;11.342;2023-04-06T02:19:47;9.00;;;5.70;;
44973;SDS011;60981;50.720;11.342;2023-04-06T02:20:52;9.60;;;6.18;;
44973;SDS011;60981;50.720;11.342;2023-04-06T02:21:57;9.30;;;6.85;;
44973;SDS011;60981;50.720;11.342;2023-04-06T02:23:00;9.50;;;5.38;;
44973;SDS011;60981;50.720;11.342;2023-04-06T02:24:02;10.32;;;5.13;;
44973;SDS011;60981;50.720;11.342;2023-04-06T02:25:07;9.00;;;5.65;;
44973;SDS011;60981;50.720;11.342;2023-04-06T02:26:10;9.05;;;5.70;;
44973;SDS011;60981;50.720;11.342;2023-04-06T02:27:13;9.98;;;5.72;;
44973;SDS011;60981;50.720;11.342;2023-04-06T02:28:16;9.10;;;5.47;;
44973;SDS011;60981;50.720;11.342;2023-04-06T02:29:24;9.95;;;6.45;;
44973;SDS011;60981;50.720;11.342;2023-04-06T02:30:27;10.63;;;6.20;;
44973;SDS011;60981;50.720;11.342;2023-04-06T02:31:31;9.15;;;5.60;;
44973;SDS011;60981;50.720;11.342;2023-04-06T02:32:39;9.23;;;5.32;;
44973;SDS011;60981;50.720;11.342;2023-04-06T02:33:41;9.48;;;5.53;;
44973;SDS011;60981;50.720;11.342;2023-04-06T02:34:44;9.88;;;5.80;;
44973;SDS011;60981;50.720;11.342;2023-04-06T02:35:46;14.57;;;6.45;;
44973;SDS011;60981;50.720;11.342;2023-04-06T02:36:49;10.90;;;5.90;;
44973;SDS011;60981;50.720;11.342;2023-04-06T02:38:56;10.48;;;5.68;;
44973;SDS011;60981;50.720;11.342;2023-04-06T02:39:59;10.35;;;5.90;;
44973;SDS011;60981;50.720;11.342;2023-04-06T02:41:01;10.07;;;5.70;;
44973;SDS011;60981;50.720;11.342;2023-04-06T02:42:04;9.30;;;6.57;;
44973;SDS011;60981;50.720;11.342;2023-04-06T02:43:06;9.60;;;5.85;;
44973;SDS011;60981;50.720;11.342;2023-04-06T02:44:09;12.27;;;6.28;;
44973;SDS011;60981;50.720;11.342;2023-04-06T02:45:12;10.68;;;6.43;;
44973;SDS011;60981;50.720;11.342;2023-04-06T02:46:18;9.40;;;5.97;;
44973;SDS011;60981;50.720;11.342;2023-04-06T02:47:23;8.07;;;5.25;;
44973;SDS011;60981;50.720;11.342;2023-04-06T02:48:28;8.70;;;6.57;;
44973;SDS011;60981;50.720;11.342;2023-04-06T02:49:33;10.65;;;6.30;;
44973;SDS011;60981;50.720;11.342;2023-04-06T02:50:36;11.55;;;6.28;;
44973;SDS011;60981;50.720;11.342;2023-04-06T02:51:37;8.73;;;5.75;;
44973;SDS011;60981;50.720;11.342;2023-04-06T02:52:47;9.90;;;5.63;;
44973;SDS011;60981;50.720;11.342;2023-04-06T02:53:49;9.38;;;5.63;;
44973;SDS011;60981;50.720;11.342;2023-04-06T02:54:52;8.43;;;5.32;;
44973;SDS011;60981;50.720;11.342;2023-04-06T02:55:55;10.95;;;6.22;;
44973;SDS011;60981;50.720;11.342;2023-04-06T02:56:58;9.75;;;5.82;;
44973;SDS011;60981;50.720;11.342;2023-04-06T02:58:03;9.13;;;5.72;;
44973;SDS011;60981;50.720;11.342;2023-04-06T02:59:05;10.10;;;5.88;;
44973;SDS011;60981;50.720;11.342;2023-04-06T03:00:13;9.93;;;6.25;;
44973;SDS011;60981;50.720;11.342;2023-04-06T03:01:16;9.93;;;5.78;;
44973;SDS011;60981;50.720;11.342;2023-04-06T03:02:20;12.15;;;5.90;;
44973;SDS011;60981;50.720;11.342;2023-04-06T03:03:23;10.52;;;5.88;;
44973;SDS011;60981;50.720;11.342;2023-04-06T03:04:26;9.35;;;5.88;;
44973;SDS011;60981;50.720;11.342;2023-04-06T03:05:29;9.15;;;5.22;;
44973;SDS011;60981;50.720;11.342;2023-04-06T03:06:34;9.18;;;5.60;;
44973;SDS011;60981;50.720;11.342;2023-04-06T03:07:37;11.50;;;5.82;;
44973;SDS011;60981;50.720;11.342;2023-04-06T03:08:42;9.02;;;5.05;;
44973;SDS011;60981;50.720;11.342;2023-04-06T03:09:45;11.30;;;6.05;;
44973;SDS011;60981;50.720;11.342;2023-04-06T03:10:47;9.73;;;5.90;;
44973;SDS011;60981;50.720;11.342;2023-04-06T03:11:50;10.77;;;6.15;;
44973;SDS011;60981;50.720;11.342;2023-04-06T03:12:55;9.25;;;5.32;;
44973;SDS011;60981;50.720;11.342;2023-04-06T03:13:59;9.98;;;5.45;;
44973;SDS011;60981;50.720;11.342;2023-04-06T03:18:13;9.95;;;5.35;;
44973;SDS011;60981;50.720;11.342;2023-04-06T03:19:16;14.32;;;6.38;;
44973;SDS011;60981;50.720;11.342;2023-04-06T03:20:22;9.70;;;5.82;;
44973;SDS011;60981;50.720;11.342;2023-04-06T03:21:27;9.75;;;5.50;;
44973;SDS011;60981;50.720;11.342;2023-04-06T03:22:32;11.43;;;6.05;;
44973;SDS011;60981;50.720;11.342;2023-04-06T03:23:35;8.27;;;5.80;;
44973;SDS011;60981;50.720;11.342;2023-04-06T03:24:39;10.82;;;5.90;;
44973;SDS011;60981;50.720;11.342;2023-04-06T03:25:46;10.55;;;5.72;;
44973;SDS011;60981;50.720;11.342;2023-04-06T03:26:48;11.23;;;6.43;;
44973;SDS011;60981;50.720;11.342;2023-04-06T03:27:50;10.40;;;6.28;;
44973;SDS011;60981;50.720;11.342;2023-04-06T03:28:54;10.15;;;5.80;;
44973;SDS011;60981;50.720;11.342;2023-04-06T03:29:59;9.95;;;5.90;;
44973;SDS011;60981;50.720;11.342;2023-04-06T03:31:02;9.65;;;6.90;;
44973;SDS011;60981;50.720;11.342;2023-04-06T03:32:04;13.57;;;6.85;;
44973;SDS011;60981;50.720;11.342;2023-04-06T03:33:07;9.30;;;6.05;;
44973;SDS011;60981;50.720;11.342;2023-04-06T03:34:10;12.27;;;6.38;;
44973;SDS011;60981;50.720;11.342;2023-04-06T03:37:21;11.55;;;5.97;;
44973;SDS011;60981;50.720;11.342;2023-04-06T03:41:36;10.88;;;6.07;;
44973;SDS011;60981;50.720;11.342;2023-04-06T03:42:39;11.10;;;5.75;;
44973;SDS011;60981;50.720;11.342;2023-04-06T03:43:42;10.38;;;6.75;;
44973;SDS011;60981;50.720;11.342;2023-04-06T03:44:46;11.45;;;6.57;;
44973;SDS011;60981;50.720;11.342;2023-04-06T03:45:51;11.93;;;6.68;;
44973;SDS011;60981;50.720;11.342;2023-04-06T03:46:52;10.82;;;6.68;;
44973;SDS011;60981;50.720;11.342;2023-04-06T03:47:56;10.93;;;7.00;;
44973;SDS011;60981;50.720;11.342;2023-04-06T03:48:59;12.10;;;7.32;;
44973;SDS011;60981;50.720;11.342;2023-04-06T03:50:04;11.45;;;6.53;;
44973;SDS011;60981;50.720;11.342;2023-04-06T03:51:07;10.15;;;6.40;;
44973;SDS011;60981;50.720;11.342;2023-04-06T03:52:10;11.75;;;6.72;;
44973;SDS011;60981;50.720;11.342;2023-04-06T03:53:13;10.98;;;7.05;;
44973;SDS011;60981;50.720;11.342;2023-04-06T03:54:17;14.75;;;6.63;;
44973;SDS011;60981;50.720;11.342;2023-04-06T03:55:22;10.50;;;7.40;;
44973;SDS011;60981;50.720;11.342;2023-04-06T03:56:25;10.05;;;5.93;;
44973;SDS011;60981;50.720;11.342;2023-04-06T03:57:30;11.52;;;6.35;;
44973;SDS011;60981;50.720;11.342;2023-04-06T03:58:32;11.27;;;7.00;;
44973;SDS011;60981;50.720;11.342;2023-04-06T03:59:36;10.77;;;6.40;;
44973;SDS011;60981;50.720;11.342;2023-04-06T04:00:38;14.63;;;7.43;;
44973;SDS011;60981;50.720;11.342;2023-04-06T04:01:43;11.73;;;6.75;;
44973;SDS011;60981;50.720;11.342;2023-04-06T04:02:48;14.13;;;7.05;;
44973;SDS011;60981;50.720;11.342;2023-04-06T04:03:51;12.57;;;6.50;;
44973;SDS011;60981;50.720;11.342;2023-04-06T04:04:54;11.68;;;7.90;;
44973;SDS011;60981;50.720;11.342;2023-04-06T04:05:56;12.93;;;6.60;;
44973;SDS011;60981;50.720;11.342;2023-04-06T04:06:59;10.88;;;6.75;;
44973;SDS011;60981;50.720;11.342;2023-04-06T04:08:04;13.32;;;7.32;;
44973;SDS011;60981;50.720;11.342;2023-04-06T04:09:07;14.43;;;7.72;;
44973;SDS011;60981;50.720;11.342;2023-04-06T04:10:10;14.55;;;6.88;;
44973;SDS011;60981;50.720;11.342;2023-04-06T04:11:13;11.25;;;6.90;;
44973;SDS011;60981;50.720;11.342;2023-04-06T04:18:53;11.25;;;7.13;;
44973;SDS011;60981;50.720;11.342;2023-04-06T04:19:56;14.52;;;7.80;;
44973;SDS011;60981;50.720;11.342;2023-04-06T04:21:01;15.07;;;7.57;;
44973;SDS011;60981;50.720;11.342;2023-04-06T04:22:04;15.63;;;8.70;;
44973;SDS011;60981;50.720;11.342;2023-04-06T04:23:07;11.05;;;7.45;;
44973;SDS011;60981;50.720;11.342;2023-04-06T04:24:10;13.50;;;7.82;;
44973;SDS011;60981;50.720;11.342;2023-04-06T04:25:15;13.23;;;7.80;;
44973;SDS011;60981;50.720;11.342;2023-04-06T04:26:17;14.93;;;9.05;;
44973;SDS011;60981;50.720;11.342;2023-04-06T04:27:21;12.85;;;7.30;;
44973;SDS011;60981;50.720;11.342;2023-04-06T04:28:24;14.23;;;8.07;;
44973;SDS011;60981;50.720;11.342;2023-04-06T04:29:31;14.80;;;7.85;;
44973;SDS011;60981;50.720;11.342;2023-04-06T04:30:33;14.30;;;7.75;;
44973;SDS011;60981;50.720;11.342;2023-04-06T04:31:36;16.60;;;8.73;;
44973;SDS011;60981;50.720;11.342;2023-04-06T04:32:39;16.08;;;8.82;;
44973;SDS011;60981;50.720;11.342;2023-04-06T04:33:40;13.85;;;7.85;;
44973;SDS011;60981;50.720;11.342;2023-04-06T04:34:43;11.85;;;7.00;;
44973;SDS011;60981;50.720;11.342;2023-04-06T04:35:48;11.35;;;7.28;;
44973;SDS011;60981;50.720;11.342;2023-04-06T04:36:53;14.43;;;7.25;;
44973;SDS011;60981;50.720;11.342;2023-04-06T04:37:55;14.43;;;7.50;;
44973;SDS011;60981;50.720;11.342;2023-04-06T04:38:57;13.00;;;7.40;;
44973;SDS011;60981;50.720;11.342;2023-04-06T04:40:02;13.35;;;7.68;;
44973;SDS011;60981;50.720;11.342;2023-04-06T04:41:05;14.95;;;8.43;;
44973;SDS011;60981;50.720;11.342;2023-04-06T04:42:12;13.23;;;8.52;;
44973;SDS011;60981;50.720;11.342;2023-04-06T04:43:15;15.32;;;8.35;;
44973;SDS011;60981;50.720;11.342;2023-04-06T04:44:17;14.27;;;7.90;;
44973;SDS011;60981;50.720;11.342;2023-04-06T04:45:22;13.30;;;8.60;;
44973;SDS011;60981;50.720;11.342;2023-04-06T04:46:27;10.70;;;7.00;;
44973;SDS011;60981;50.720;11.342;2023-04-06T04:47:29;10.85;;;7.30;;
44973;SDS011;60981;50.720;11.342;2023-04-06T04:48:32;12.18;;;7.35;;
44973;SDS011;60981;50.720;11.342;2023-04-06T04:49:35;12.90;;;7.55;;
44973;SDS011;60981;50.720;11.342;2023-04-06T04:50:40;12.15;;;6.95;;
44973;SDS011;60981;50.720;11.342;2023-04-06T04:51:45;13.90;;;6.97;;
44973;SDS011;60981;50.720;11.342;2023-04-06T04:52:48;9.82;;;6.15;;
44973;SDS011;60981;50.720;11.342;2023-04-06T04:53:49;9.85;;;6.28;;
44973;SDS011;60981;50.720;11.342;2023-04-06T04:54:52;13.43;;;7.07;;
44973;SDS011;60981;50.720;11.342;2023-04-06T04:55:53;13.20;;;7.90;;
44973;SDS011;60981;50.720;11.342;2023-04-06T04:56:56;13.70;;;7.47;;
44973;SDS011;60981;50.720;11.342;2023-04-06T04:57:58;12.05;;;7.13;;
44973;SDS011;60981;50.720;11.342;2023-04-06T04:59:04;14.82;;;7.80;;
44973;SDS011;60981;50.720;11.342;2023-04-06T05:00:07;11.75;;;7.38;;
44973;SDS011;60981;50.720;11.342;2023-04-06T05:01:13;12.82;;;7.97;;
44973;SDS011;60981;50.720;11.342;2023-04-06T05:02:14;9.88;;;6.57;;
44973;SDS011;60981;50.720;11.342;2023-04-06T05:03:20;10.90;;;7.10;;
44973;SDS011;60981;50.720;11.342;2023-04-06T05:04:26;11.35;;;6.95;;
44973;SDS011;60981;50.720;11.342;2023-04-06T05:05:29;12.68;;;7.30;;
44973;SDS011;60981;50.720;11.342;2023-04-06T05:06:34;12.95;;;6.88;;
44973;SDS011;60981;50.720;11.342;2023-04-06T05:07:36;12.32;;;7.30;;
44973;SDS011;60981;50.720;11.342;2023-04-06T05:08:39;10.10;;;6.55;;
44973;SDS011;60981;50.720;11.342;2023-04-06T05:09:41;10.77;;;6.78;;
44973;SDS011;60981;50.720;11.342;2023-04-06T05:10:43;11.95;;;6.93;;
44973;SDS011;60981;50.720;11.342;2023-04-06T05:11:46;13.77;;;7.93;;
44973;SDS011;60981;50.720;11.342;2023-04-06T05:12:48;15.98;;;7.85;;
44973;SDS011;60981;50.720;11.342;2023-04-06T05:13:50;11.52;;;7.45;;
44973;SDS011;60981;50.720;11.342;2023-04-06T05:14:52;14.70;;;7.50;;
44973;SDS011;60981;50.720;11.342;2023-04-06T05:15:57;12.80;;;7.43;;
44973;SDS011;60981;50.720;11.342;2023-04-06T05:17:02;11.43;;;6.57;;
44973;SDS011;60981;50.720;11.342;2023-04-06T05:18:06;13.48;;;8.20;;
44973;SDS011;60981;50.720;11.342;2023-04-06T05:19:10;13.25;;;8.13;;
44973;SDS011;60981;50.720;11.342;2023-04-06T05:20:15;14.63;;;7.10;;
44973;SDS011;60981;50.720;11.342;2023-04-06T05:21:18;12.73;;;6.93;;
44973;SDS011;60981;50.720;11.342;2023-04-06T05:22:23;13.68;;;7.57;;
44973;SDS011;60981;50.720;11.342;2023-04-06T05:23:28;13.82;;;7.82;;
44973;SDS011;60981;50.720;11.342;2023-04-06T05:24:31;12.25;;;7.18;;
44973;SDS011;60981;50.720;11.342;2023-04-06T05:25:33;13.70;;;7.25;;
44973;SDS011;60981;50.720;11.342;2023-04-06T05:26:39;12.98;;;7.68;;
44973;SDS011;60981;50.720;11.342;2023-04-06T05:27:41;14.50;;;7.97;;
44973;SDS011;60981;50.720;11.342;2023-04-06T05:28:44;12.70;;;8.10;;
44973;SDS011;60981;50.720;11.342;2023-04-06T05:29:46;15.27;;;7.53;;
44973;SDS011;60981;50.720;11.342;2023-04-06T05:30:48;11.70;;;7.90;;
44973;SDS011;60981;50.720;11.342;2023-04-06T05:31:51;18.88;;;8.85;;
44973;SDS011;60981;50.720;11.342;2023-04-06T05:32:53;12.57;;;7.60;;
44973;SDS011;60981;50.720;11.342;2023-04-06T05:33:55;12.75;;;7.47;;
44973;SDS011;60981;50.720;11.342;2023-04-06T05:34:58;12.35;;;7.30;;
44973;SDS011;60981;50.720;11.342;2023-04-06T05:36:02;13.30;;;7.72;;
44973;SDS011;60981;50.720;11.342;2023-04-06T05:37:07;15.57;;;7.68;;
44973;SDS011;60981;50.720;11.342;2023-04-06T05:38:09;13.35;;;7.60;;
44973;SDS011;60981;50.720;11.342;2023-04-06T05:39:15;14.30;;;7.30;;
44973;SDS011;60981;50.720;11.342;2023-04-06T05:40:17;16.65;;;7.43;;
44973;SDS011;60981;50.720;11.342;2023-04-06T05:41:22;13.95;;;7.70;;
44973;SDS011;60981;50.720;11.342;2023-04-06T05:42:25;13.45;;;7.50;;
44973;SDS011;60981;50.720;11.342;2023-04-06T05:43:29;12.18;;;7.75;;
44973;SDS011;60981;50.720;11.342;2023-04-06T05:44:33;15.02;;;7.78;;
44973;SDS011;60981;50.720;11.342;2023-04-06T05:45:36;12.13;;;7.45;;
44973;SDS011;60981;50.720;11.342;2023-04-06T05:46:41;14.20;;;7.97;;
44973;SDS011;60981;50.720;11.342;2023-04-06T05:47:44;13.82;;;8.10;;
44973;SDS011;60981;50.720;11.342;2023-04-06T05:48:48;11.50;;;7.55;;
44973;SDS011;60981;50.720;11.342;2023-04-06T05:49:50;10.35;;;6.93;;
44973;SDS011;60981;50.720;11.342;2023-04-06T05:50:53;14.40;;;8.52;;
44973;SDS011;60981;50.720;11.342;2023-04-06T05:51:56;14.93;;;8.52;;
44973;SDS011;60981;50.720;11.342;2023-04-06T05:53:00;12.15;;;7.75;;
44973;SDS011;60981;50.720;11.342;2023-04-06T05:54:01;15.15;;;7.75;;
44973;SDS011;60981;50.720;11.342;2023-04-06T05:55:07;15.75;;;8.27;;
44973;SDS011;60981;50.720;11.342;2023-04-06T05:56:13;12.40;;;7.47;;
44973;SDS011;60981;50.720;11.342;2023-04-06T05:57:15;13.18;;;7.80;;
44973;SDS011;60981;50.720;11.342;2023-04-06T05:58:21;13.05;;;8.23;;
44973;SDS011;60981;50.720;11.342;2023-04-06T05:59:24;13.45;;;7.65;;
44973;SDS011;60981;50.720;11.342;2023-04-06T06:00:26;13.15;;;8.32;;
44973;SDS011;60981;50.720;11.342;2023-04-06T06:01:32;11.07;;;7.80;;
44973;SDS011;60981;50.720;11.342;2023-04-06T06:02:37;23.77;;;12.90;;
44973;SDS011;60981;50.720;11.342;2023-04-06T06:03:42;14.63;;;8.50;;
44973;SDS011;60981;50.720;11.342;2023-04-06T06:04:47;14.00;;;7.75;;
44973;SDS011;60981;50.720;11.342;2023-04-06T06:05:50;11.90;;;7.22;;
44973;SDS011;60981;50.720;11.342;2023-04-06T06:06:51;15.00;;;8.07;;
44973;SDS011;60981;50.720;11.342;2023-04-06T06:07:54;11.38;;;7.38;;
44973;SDS011;60981;50.720;11.342;2023-04-06T06:08:59;14.25;;;8.35;;
44973;SDS011;60981;50.720;11.342;2023-04-06T06:10:03;16.05;;;7.43;;
44973;SDS011;60981;50.720;11.342;2023-04-06T06:11:05;12.60;;;7.53;;
44973;SDS011;60981;50.720;11.342;2023-04-06T06:12:08;16.75;;;8.40;;
44973;SDS011;60981;50.720;11.342;2023-04-06T06:13:15;14.43;;;9.00;;
44973;SDS011;60981;50.720;11.342;2023-04-06T06:14:17;15.13;;;9.07;;
44973;SDS011;60981;50.720;11.342;2023-04-06T06:15:23;15.35;;;8.48;;
44973;SDS011;60981;50.720;11.342;2023-04-06T06:16:26;17.52;;;8.10;;
44973;SDS011;60981;50.720;11.342;2023-04-06T06:17:28;15.32;;;8.70;;
44973;SDS011;60981;50.720;11.342;2023-04-06T06:18:29;12.65;;;7.53;;
44973;SDS011;60981;50.720;11.342;2023-04-06T06:19:33;14.77;;;8.50;;
44973;SDS011;60981;50.720;11.342;2023-04-06T06:20:39;14.25;;;7.50;;
44973;SDS011;60981;50.720;11.342;2023-04-06T06:21:41;12.98;;;7.90;;
44973;SDS011;60981;50.720;11.342;2023-04-06T06:22:44;14.40;;;8.88;;
44973;SDS011;60981;50.720;11.342;2023-04-06T06:23:46;17.10;;;7.85;;
44973;SDS011;60981;50.720;11.342;2023-04-06T06:24:50;14.25;;;7.80;;
44973;SDS011;60981;50.720;11.342;2023-04-06T06:28:14;13.07;;;7.75;;
44973;SDS011;60981;50.720;11.342;2023-04-06T06:29:22;14.30;;;7.85;;
44973;SDS011;60981;50.720;11.342;2023-04-06T06:30:41;12.80;;;7.32;;
44973;SDS011;60981;50.720;11.342;2023-04-06T06:32:10;13.38;;;6.80;;
44973;SDS011;60981;50.720;11.342;2023-04-06T06:33:24;14.52;;;8.20;;
44973;SDS011;60981;50.720;11.342;2023-04-06T06:35:22;14.00;;;8.35;;